Terminal Aerodrome Forecast
Issued by NWS

Home | Current Version | Previous Version | Text Only | Print | Product List | Glossary On
Versions: 1 2 3 4 5 6 7 8 9 10 11 12 13 14 15
000
FTUS42 KMLB 030533
TAFISM
TAF
KISM 030533Z 0306/0406 22003KT P6SM SCT250
     FM031400 26006KT P6SM FEW040 SCT250
     FM031900 30008KT P6SM SCT040 BKN120
     FM040200 27004KT P6SM SCT120
      AMD NOT SKED TIL 031200=

USA.gov is the U.S. government's official web portal to all federal, state and local government web resources and services.